Time;durP1;ratioP1;P1;durP2;ratioP2;P2;SDS_P1;SDS_P2;PMS_P1;PMS_P2;Temp;Humidity;BMP_temperature;BMP_pressure;BME280_temperature;BME280_humidity;BME280_pressure;Samples;Min_cycle;Max_cycle;Signal;HPM_P1;HPM_P2
2023/09/20 00:01:19;;;;;;;5.20;4.30;;;;;;;16.76;79.23;95003.25;5093784;28;20077;-71
2023/09/20 00:03:45;;;;;;;4.78;3.97;;;;;;;16.67;79.84;95006.84;5093701;28;20035;-71
2023/09/20 00:06:11;;;;;;;6.72;4.30;;;;;;;16.58;79.99;94990.25;5092549;28;20020;-71
2023/09/20 00:08:36;;;;;;;4.47;4.07;;;;;;;16.63;80.02;95002.88;5092523;28;20473;-71
2023/09/20 00:11:02;;;;;;;4.90;4.30;;;;;;;16.64;80.13;95005.34;5092584;28;20024;-71
2023/09/20 00:13:27;;;;;;;6.15;4.38;;;;;;;16.43;80.35;94991.81;5093429;28;20032;-71
2023/09/20 00:15:55;;;;;;;8.63;4.20;;;;;;;16.51;80.74;95000.53;5093566;28;20068;-71
2023/09/20 00:18:23;;;;;;;5.05;4.07;;;;;;;16.45;81.00;94995.94;5092459;28;20028;-71
2023/09/20 00:20:49;;;;;;;6.18;4.45;;;;;;;16.48;80.89;94993.00;5075736;28;20051;-71
2023/09/20 00:23:20;;;;;;;6.10;4.03;;;;;;;16.57;81.08;95006.94;5092377;28;20452;-71
2023/09/20 00:25:46;;;;;;;6.82;4.40;;;;;;;16.46;81.00;95000.19;5076152;28;20525;-71
2023/09/20 00:28:12;;;;;;;4.65;4.15;;;;;;;16.41;80.95;94981.53;5075414;28;20035;-71
2023/09/20 00:30:37;;;;;;;4.85;4.30;;;;;;;16.38;80.95;94994.09;5093267;28;20111;-71
2023/09/20 00:33:03;;;;;;;5.90;4.40;;;;;;;16.44;81.02;95009.22;5093570;28;20036;-71
2023/09/20 00:35:28;;;;;;;4.97;4.43;;;;;;;16.44;80.88;95017.91;5091987;28;20027;-72
2023/09/20 00:37:54;;;;;;;4.63;4.03;;;;;;;16.42;81.10;95011.16;5091993;28;20040;-71
2023/09/20 00:40:21;;;;;;;4.68;3.97;;;;;;;16.28;81.06;95004.72;5093151;28;20042;-71
2023/09/20 00:42:50;;;;;;;5.13;4.63;;;;;;;16.28;80.58;95012.59;5075326;28;20111;-71
2023/09/20 00:45:15;;;;;;;5.07;4.43;;;;;;;16.03;80.95;94990.69;5091810;28;20490;-71
2023/09/20 00:47:47;;;;;;;5.00;3.67;;;;;;;16.28;79.55;95021.25;5074711;28;20093;-71
2023/09/20 00:50:13;;;;;;;5.93;4.35;;;;;;;16.31;79.18;95020.13;5091653;28;20500;-71
2023/09/20 00:52:42;;;;;;;5.53;4.03;;;;;;;16.26;79.09;95011.91;5074829;28;20111;-71
2023/09/20 00:55:34;;;;;;;4.97;4.35;;;;;;;16.07;79.39;95013.81;5058448;28;20477;-71
2023/09/20 00:58:04;;;;;;;5.97;4.13;;;;;;;16.18;79.11;95011.88;5089469;28;20525;-71
2023/09/20 01:00:32;;;;;;;6.75;4.25;;;;;;;16.09;78.92;95014.44;5075266;28;20496;-71
2023/09/20 01:02:58;;;;;;;5.30;4.05;;;;;;;15.76;79.16;94981.19;5074937;28;20044;-71
2023/09/20 01:05:25;;;;;;;5.38;4.28;;;;;;;15.92;79.77;95012.72;5091338;28;20032;-71
2023/09/20 01:08:01;;;;;;;7.55;4.50;;;;;;;15.93;79.67;95011.75;5091326;28;20043;-71
2023/09/20 01:10:27;;;;;;;4.40;3.83;;;;;;;15.88;79.82;95013.19;5090420;28;20044;-71
2023/09/20 01:13:04;;;;;;;5.70;3.88;;;;;;;15.83;79.51;95026.75;5091305;28;20040;-71
2023/09/20 01:15:31;;;;;;;4.68;3.83;;;;;;;15.72;79.17;95013.91;5091283;28;20024;-71
2023/09/20 01:17:57;;;;;;;5.93;4.00;;;;;;;15.67;78.82;95000.44;5091302;28;20505;-71
2023/09/20 01:20:24;;;;;;;7.78;4.20;;;;;;;15.71;78.84;95018.34;5091114;28;20024;-71
2023/09/20 01:22:54;;;;;;;4.65;3.72;;;;;;;15.65;78.99;95026.75;5091086;28;20024;-71
2023/09/20 01:25:24;;;;;;;6.47;4.07;;;;;;;15.70;78.79;95026.34;5091086;28;20036;-71
2023/09/20 01:27:50;;;;;;;4.40;3.63;;;;;;;15.59;78.81;95022.94;5090843;28;20040;-71
2023/09/20 01:30:16;;;;;;;5.85;3.80;;;;;;;15.54;79.31;95006.06;5074182;28;20024;-71
2023/09/20 01:32:42;;;;;;;11.68;3.70;;;;;;;15.55;80.04;95019.00;5074136;28;20047;-71
2023/09/20 01:35:08;;;;;;;3.95;3.55;;;;;;;15.49;81.19;95019.63;5090800;28;20020;-71
2023/09/20 01:37:33;;;;;;;4.68;3.50;;;;;;;15.47;81.60;95016.31;5092159;28;20028;-71
2023/09/20 01:39:58;;;;;;;5.65;3.47;;;;;;;15.47;81.79;95018.94;5090763;28;20413;-71
2023/09/20 01:42:24;;;;;;;7.30;3.80;;;;;;;15.47;82.26;95000.63;5092058;28;20028;-71
2023/09/20 01:44:49;;;;;;;4.53;3.92;;;;;;;15.56;82.45;95002.31;5091837;28;20020;-71
2023/09/20 01:47:18;;;;;;;5.80;4.00;;;;;;;15.70;82.01;95027.16;5091879;28;20039;-71
2023/09/20 01:49:44;;;;;;;5.07;4.15;;;;;;;15.78;82.15;95034.25;5091765;28;20177;-71
2023/09/20 01:52:10;;;;;;;6.18;3.65;;;;;;;15.76;82.69;95026.53;5091834;28;20024;-70
2023/09/20 01:54:37;;;;;;;4.05;3.60;;;;;;;15.79;82.77;95026.22;5091961;28;20025;-71
2023/09/20 01:57:03;;;;;;;4.35;3.78;;;;;;;15.84;82.71;95031.00;5073440;28;20078;-71
2023/09/20 01:59:29;;;;;;;4.60;3.70;;;;;;;15.67;83.09;94995.19;5073601;28;20051;-71
2023/09/20 02:01:54;;;;;;;5.03;3.63;;;;;;;15.87;83.20;95012.38;5090210;28;20513;-71
2023/09/20 02:04:20;;;;;;;5.22;3.75;;;;;;;15.95;83.39;95020.28;5091552;28;20028;-71
2023/09/20 02:06:46;;;;;;;5.15;3.58;;;;;;;15.79;83.92;94994.78;5091319;28;20024;-71
2023/09/20 02:09:13;;;;;;;7.93;4.43;;;;;;;15.95;84.26;95009.78;5073506;28;20024;-71
2023/09/20 02:11:38;;;;;;;6.32;4.22;;;;;;;16.08;84.38;95015.44;5090100;28;20028;-71
2023/09/20 02:14:04;;;;;;;5.65;4.72;;;;;;;16.15;83.75;95015.63;5091384;28;20031;-71
2023/09/20 02:16:32;;;;;;;6.75;5.00;;;;;;;16.16;83.77;95011.19;5090097;28;20085;-71
2023/09/20 02:18:57;;;;;;;5.97;4.82;;;;;;;16.16;84.00;95019.06;5091247;28;20020;-71
2023/09/20 02:21:23;;;;;;;7.70;5.40;;;;;;;15.94;84.15;94989.81;5072920;28;20077;-71
2023/09/20 02:23:52;;;;;;;6.80;5.10;;;;;;;16.16;83.24;95016.44;5091147;28;20051;-71
2023/09/20 02:26:18;;;;;;;7.82;5.28;;;;;;;16.02;83.05;95010.81;5091358;28;20032;-71
2023/09/20 02:28:44;;;;;;;10.05;5.35;;;;;;;16.22;81.81;95018.47;5091061;28;20244;-71
2023/09/20 02:31:11;;;;;;;7.97;5.47;;;;;;;16.28;82.04;95018.66;5091136;28;20012;-71
2023/09/20 02:33:36;;;;;;;8.40;5.32;;;;;;;16.37;82.07;95016.06;5090047;28;20034;-71
2023/09/20 02:36:03;;;;;;;7.07;5.50;;;;;;;16.30;82.17;95021.13;5090015;28;20392;-71
2023/09/20 02:38:28;;;;;;;11.95;5.70;;;;;;;16.21;82.05;95016.81;5091478;28;20036;-71
2023/09/20 02:40:56;;;;;;;7.30;5.70;;;;;;;16.13;81.88;95022.00;5073161;28;20348;-71
2023/09/20 02:43:21;;;;;;;9.00;5.13;;;;;;;16.16;81.20;95034.78;5091363;28;20042;-71
2023/09/20 02:45:46;;;;;;;6.70;4.50;;;;;;;15.98;82.15;95016.53;5089715;28;20027;-71
2023/09/20 02:48:12;;;;;;;7.00;4.80;;;;;;;16.15;81.63;95031.34;5089856;28;20032;-71
2023/09/20 02:50:41;;;;;;;5.55;4.35;;;;;;;16.09;80.72;95038.03;5090907;28;20504;-71
2023/09/20 02:53:07;;;;;;;6.07;4.03;;;;;;;16.08;80.22;95030.34;5073368;28;20537;-71
2023/09/20 02:55:32;;;;;;;7.03;4.38;;;;;;;16.14;80.59;95028.91;5072883;28;20112;-71
2023/09/20 02:57:58;;;;;;;5.13;4.20;;;;;;;16.10;80.19;95020.50;5090816;28;20068;-71
2023/09/20 03:00:27;;;;;;;4.78;4.05;;;;;;;16.01;80.05;95035.38;5072727;28;20047;-71
2023/09/20 03:02:56;;;;;;;5.22;4.20;;;;;;;15.83;80.00;95026.75;5089688;28;20040;-71
2023/09/20 03:05:26;;;;;;;5.70;3.88;;;;;;;15.81;80.85;95034.75;5073231;28;20485;-71
2023/09/20 03:07:53;;;;;;;7.97;4.03;;;;;;;15.62;80.53;95012.16;5089525;28;20044;-71
2023/09/20 03:10:22;;;;;;;6.50;4.38;;;;;;;15.86;80.47;95042.16;5089498;28;20041;-71
2023/09/20 03:12:51;;;;;;;6.40;4.32;;;;;;;15.76;80.84;95042.25;5089549;28;20066;-71
2023/09/20 03:15:17;;;;;;;5.55;3.83;;;;;;;15.82;81.51;95027.72;5089470;28;20028;-71
2023/09/20 03:17:47;;;;;;;7.93;5.38;;;;;;;16.00;80.82;95038.16;5072537;28;20432;-71
2023/09/20 03:20:16;;;;;;;5.47;4.32;;;;;;;15.81;81.01;95026.91;5090655;28;20028;-71
2023/09/20 03:22:41;;;;;;;9.05;5.35;;;;;;;15.79;81.53;95044.56;5089453;28;20474;-71
2023/09/20 03:25:09;;;;;;;7.13;4.93;;;;;;;15.54;82.27;95035.66;5089431;28;20032;-71
2023/09/20 03:27:36;;;;;;;5.95;4.28;;;;;;;15.47;82.83;95032.03;5072888;28;20058;-71
2023/09/20 03:30:03;;;;;;;6.82;4.70;;;;;;;15.65;81.97;95027.56;5089362;28;20099;-71
2023/09/20 03:32:28;;;;;;;6.15;4.70;;;;;;;15.86;81.38;95042.16;5090521;28;20028;-71
2023/09/20 03:34:55;;;;;;;5.90;4.35;;;;;;;15.80;80.71;95037.53;5091957;28;20036;-71
2023/09/20 03:37:21;;;;;;;7.35;4.45;;;;;;;15.59;80.34;95024.75;5093121;28;20016;-71
2023/09/20 03:39:48;;;;;;;8.15;4.00;;;;;;;15.65;79.79;95039.84;5094153;28;20043;-71
2023/09/20 03:42:13;;;;;;;5.03;3.85;;;;;;;15.53;80.40;95038.47;5093117;28;20035;-71
2023/09/20 03:44:41;;;;;;;5.03;3.50;;;;;;;15.51;79.63;95030.75;5094148;28;20024;-71
2023/09/20 03:47:07;;;;;;;7.55;4.55;;;;;;;15.53;79.09;95028.81;5092765;28;20383;-71
2023/09/20 03:49:32;;;;;;;8.75;3.70;;;;;;;15.38;79.37;95007.59;5092880;28;20078;-71
2023/09/20 03:52:01;;;;;;;7.82;3.53;;;;;;;15.31;80.20;95031.88;5092995;28;20031;-71
2023/09/20 03:54:28;;;;;;;6.03;3.72;;;;;;;15.13;80.47;95017.03;5092797;28;20024;-71
2023/09/20 03:56:54;;;;;;;4.70;4.03;;;;;;;15.28;80.26;95027.78;5092516;28;20024;-71
2023/09/20 03:59:19;;;;;;;6.55;4.15;;;;;;;15.10;80.86;95025.19;5093913;28;20016;-71
2023/09/20 04:01:45;;;;;;;5.43;3.60;;;;;;;15.12;80.51;95025.81;5092560;28;20094;-71
2023/09/20 04:04:10;;;;;;;5.18;3.97;;;;;;;15.06;80.23;95023.00;5093817;28;20031;-71
2023/09/20 04:06:35;;;;;;;5.38;3.83;;;;;;;15.09;80.62;95033.97;5075500;28;20032;-71
2023/09/20 04:09:10;;;;;;;5.28;3.80;;;;;;;14.94;80.34;95023.22;5075481;28;20028;-71
2023/09/20 04:11:40;;;;;;;6.80;4.00;;;;;;;15.00;80.19;95029.66;5092326;28;20024;-71
2023/09/20 04:14:08;;;;;;;6.18;3.70;;;;;;;15.01;80.15;95028.66;5092372;28;20404;-71
2023/09/20 04:16:38;;;;;;;4.00;3.15;;;;;;;15.02;80.11;95030.34;5092363;28;20038;-71
2023/09/20 04:19:04;;;;;;;5.28;3.35;;;;;;;15.04;79.69;95040.63;5075495;28;20020;-71
2023/09/20 04:21:29;;;;;;;4.80;3.60;;;;;;;15.02;79.57;95038.19;5092244;28;20058;-71
2023/09/20 04:23:55;;;;;;;7.28;3.78;;;;;;;14.98;79.91;95032.41;5075289;28;20443;-71
2023/09/20 04:26:20;;;;;;;4.57;3.92;;;;;;;14.91;80.54;95038.41;5093347;28;20016;-71
2023/09/20 04:28:48;;;;;;;6.85;3.70;;;;;;;14.88;80.71;95031.66;5093239;28;20036;-71
2023/09/20 04:31:13;;;;;;;4.18;3.30;;;;;;;14.97;80.39;95030.78;5092301;28;20028;-71
2023/09/20 04:33:39;;;;;;;6.07;3.40;;;;;;;15.02;79.12;95022.47;5092081;28;20417;-71
2023/09/20 04:36:04;;;;;;;5.57;2.97;;;;;;;15.06;78.81;95033.47;5093262;28;20481;-71
2023/09/20 04:38:30;;;;;;;3.70;3.13;;;;;;;15.08;78.47;95032.34;5092078;28;20028;-71
2023/09/20 04:40:56;;;;;;;4.10;3.22;;;;;;;14.86;79.17;95036.22;5091929;28;20497;-71
2023/09/20 04:43:22;;;;;;;8.00;2.75;;;;;;;14.85;79.10;95023.28;5093450;28;20039;-71
2023/09/20 04:45:47;;;;;;;5.65;2.97;;;;;;;14.85;79.49;95041.56;5091725;28;20055;-71
2023/09/20 04:48:13;;;;;;;5.10;3.42;;;;;;;14.66;80.50;95032.91;5074886;28;20047;-71
2023/09/20 04:50:38;;;;;;;5.63;2.88;;;;;;;14.78;80.73;95045.78;5091755;28;20028;-71
2023/09/20 04:53:04;;;;;;;5.15;3.35;;;;;;;14.66;80.54;95026.84;5074790;28;20040;-71
2023/09/20 04:55:29;;;;;;;3.97;3.30;;;;;;;14.71;80.01;95046.38;5091675;28;20056;-71
2023/09/20 04:57:55;;;;;;;5.50;4.13;;;;;;;14.70;80.28;95039.47;5092640;28;20059;-71
2023/09/20 05:00:26;;;;;;;8.15;4.35;;;;;;;14.73;80.70;95051.44;5091526;28;20099;-71
2023/09/20 05:02:52;;;;;;;9.02;3.67;;;;;;;14.75;80.82;95036.41;5091656;28;20496;-71
2023/09/20 05:05:17;;;;;;;8.25;3.83;;;;;;;14.80;80.65;95039.44;5091461;28;20032;-71
2023/09/20 05:07:44;;;;;;;5.90;3.90;;;;;;;14.84;81.00;95053.03;5074369;28;20119;-71
2023/09/20 05:10:09;;;;;;;5.20;3.17;;;;;;;14.83;81.22;95043.53;5091280;28;20031;-71
2023/09/20 05:12:35;;;;;;;8.73;3.28;;;;;;;14.98;80.26;95036.81;5091267;28;20032;-71
2023/09/20 05:15:00;;;;;;;4.25;3.20;;;;;;;14.57;81.82;95065.16;5092506;28;20028;-71
2023/09/20 05:17:27;;;;;;;4.05;3.20;;;;;;;14.85;80.76;95063.34;5092538;28;20451;-71
2023/09/20 05:19:52;;;;;;;3.83;3.00;;;;;;;14.95;80.86;95066.72;5074456;28;20034;-71
2023/09/20 05:22:19;;;;;;;4.57;3.40;;;;;;;15.03;80.86;95065.16;5092416;28;20413;-72
2023/09/20 05:24:44;;;;;;;6.05;3.95;;;;;;;15.27;80.36;95070.63;5074322;28;20148;-71
2023/09/20 05:27:10;;;;;;;7.65;6.35;;;;;;;15.13;80.93;95056.28;5092373;28;20042;-71
2023/09/20 05:29:35;;;;;;;5.57;4.97;;;;;;;15.55;80.34;95074.00;5090892;28;20027;-71
2023/09/20 05:32:00;;;;;;;6.22;4.80;;;;;;;15.81;79.30;95076.66;5092155;28;20496;-71
2023/09/20 05:34:26;;;;;;;5.60;3.97;;;;;;;15.97;78.26;95078.59;5092187;28;20058;-71
2023/09/20 05:36:53;;;;;;;5.97;4.65;;;;;;;15.90;78.32;95079.34;5090710;28;20062;-71
2023/09/20 05:39:18;;;;;;;6.50;3.90;;;;;;;15.92;78.15;95083.47;5090647;28;20024;-72
2023/09/20 05:41:44;;;;;;;6.53;5.00;;;;;;;15.86;78.22;95086.69;5091865;28;20043;-71
2023/09/20 05:44:10;;;;;;;7.70;4.85;;;;;;;15.70;79.62;95094.41;5090689;28;20089;-71
2023/09/20 05:46:36;;;;;;;8.88;5.38;;;;;;;15.72;80.60;95093.28;5090890;28;20070;-71
2023/09/20 05:49:02;;;;;;;9.07;6.65;;;;;;;15.55;80.39;95068.75;5090555;28;20510;-71
2023/09/20 05:51:28;;;;;;;7.82;6.20;;;;;;;15.54;80.82;95081.97;5073586;28;20028;-72
2023/09/20 05:53:53;;;;;;;9.35;6.85;;;;;;;15.46;82.20;95101.06;5073501;28;20032;-71
2023/09/20 05:56:19;;;;;;;9.18;6.70;;;;;;;15.46;83.31;95101.06;5091104;28;20081;-72
2023/09/20 05:58:44;;;;;;;11.07;7.38;;;;;;;15.72;82.98;95101.16;5090284;28;20494;-71
2023/09/20 06:01:10;;;;;;;9.43;6.57;;;;;;;15.80;82.67;95105.66;5090440;28;20504;-71
2023/09/20 06:03:36;;;;;;;8.82;7.28;;;;;;;16.04;81.89;95111.03;5090116;28;20117;-71
2023/09/20 06:06:04;;;;;;;8.95;7.10;;;;;;;16.08;81.42;95114.19;5091543;28;20024;-72
2023/09/20 06:08:29;;;;;;;11.95;7.85;;;;;;;16.08;80.67;95104.53;5091793;28;20401;-71
2023/09/20 06:10:55;;;;;;;10.88;8.20;;;;;;;16.06;81.14;95110.91;5090205;28;20028;-71
2023/09/20 06:13:20;;;;;;;9.40;7.78;;;;;;;16.17;80.31;95120.31;5091759;28;20028;-72
2023/09/20 06:15:45;;;;;;;12.85;8.05;;;;;;;16.02;81.35;95120.88;5091368;28;20020;-71
2023/09/20 06:18:14;;;;;;;14.40;8.43;;;;;;;15.95;80.61;95114.59;5091288;28;20032;-71
2023/09/20 06:20:39;;;;;;;8.63;7.03;;;;;;;15.98;80.09;95116.91;5091279;28;20026;-71
2023/09/20 06:23:06;;;;;;;9.50;6.72;;;;;;;16.02;80.27;95123.50;5091587;28;20040;-72
2023/09/20 06:25:34;;;;;;;9.75;7.50;;;;;;;15.89;81.65;95117.00;5091138;28;20489;-71
2023/09/20 06:27:59;;;;;;;10.50;7.22;;;;;;;16.12;79.61;95107.66;5090009;28;20119;-71
2023/09/20 06:30:25;;;;;;;11.13;7.47;;;;;;;15.98;80.69;95103.78;5091154;28;20020;-72
2023/09/20 06:32:50;;;;;;;10.27;7.22;;;;;;;16.13;81.26;95113.72;5091342;28;20086;-72
2023/09/20 06:35:19;;;;;;;9.35;7.50;;;;;;;15.93;82.02;95106.03;5091162;28;20028;-71
2023/09/20 06:37:47;;;;;;;9.77;6.63;;;;;;;15.97;81.79;95117.06;5073620;28;20036;-72
2023/09/20 06:40:33;;;;;;;9.55;7.30;;;;;;;15.89;81.70;95104.72;5089827;28;20477;-71
2023/09/20 06:42:59;;;;;;;8.95;6.85;;;;;;;15.95;81.39;95101.50;5090044;28;20031;-71
2023/09/20 06:45:27;;;;;;;13.45;7.88;;;;;;;16.08;81.42;95117.63;5090997;28;20024;-71
2023/09/20 06:47:52;;;;;;;10.07;7.53;;;;;;;16.11;81.18;95113.06;5091034;28;20046;-72
2023/09/20 06:50:18;;;;;;;9.40;7.45;;;;;;;16.26;80.63;95109.72;5091224;28;20024;-71
2023/09/20 06:52:43;;;;;;;17.02;9.30;;;;;;;16.21;80.62;95103.28;5091073;28;20481;-71
2023/09/20 06:55:11;;;;;;;13.10;8.82;;;;;;;16.29;80.06;95112.03;5090856;28;20020;-73
2023/09/20 06:57:37;;;;;;;11.07;8.85;;;;;;;16.40;79.80;95113.56;5089436;28;20052;-71
2023/09/20 07:00:16;;;;;;;11.57;8.35;;;;;;;16.43;79.39;95115.88;5089651;28;20031;-71
2023/09/20 07:02:41;;;;;;;10.70;7.78;;;;;;;16.50;79.61;95119.53;5091025;28;20489;-71
2023/09/20 07:05:07;;;;;;;9.75;7.65;;;;;;;16.53;79.38;95129.69;5089599;28;20016;-71
2023/09/20 07:07:32;;;;;;;9.68;8.63;;;;;;;16.72;78.90;95127.84;5090887;28;20127;-71
2023/09/20 07:09:58;;;;;;;11.18;8.48;;;;;;;16.71;78.78;95115.69;5093619;28;20028;-71
2023/09/20 07:12:23;;;;;;;8.80;7.78;;;;;;;16.89;78.07;95129.56;5094979;28;20033;-72
2023/09/20 07:14:49;;;;;;;9.77;7.72;;;;;;;16.94;77.58;95126.50;5094773;28;20020;-71
2023/09/20 07:17:14;;;;;;;12.85;7.32;;;;;;;16.89;78.25;95110.38;5093534;28;20401;-71
2023/09/20 07:19:40;;;;;;;10.55;7.75;;;;;;;17.11;78.42;95133.44;5094683;28;20069;-71
2023/09/20 07:22:05;;;;;;;11.00;8.85;;;;;;;17.02;78.07;95125.66;5094699;28;20040;-72
2023/09/20 07:24:32;;;;;;;12.50;9.68;;;;;;;16.92;77.99;95113.50;5094666;28;20069;-71
2023/09/20 07:26:58;;;;;;;14.45;10.13;;;;;;;17.00;78.37;95127.66;5094481;28;20046;-71
2023/09/20 07:29:24;;;;;;;12.40;8.93;;;;;;;16.96;78.49;95127.13;5094504;28;20024;-71
2023/09/20 07:31:49;;;;;;;13.98;8.40;;;;;;;16.72;78.57;95091.13;5093125;28;20035;-71
2023/09/20 07:34:16;;;;;;;13.73;9.60;;;;;;;16.84;78.80;95110.84;5093232;28;20051;-71
2023/09/20 07:36:43;;;;;;;12.70;9.90;;;;;;;17.03;78.69;95132.59;5076202;28;20035;-71
2023/09/20 07:39:12;;;;;;;11.73;9.25;;;;;;;17.05;77.91;95128.81;5094286;28;20032;-72
2023/09/20 07:41:44;;;;;;;13.70;9.52;;;;;;;17.10;77.75;95129.13;5094182;28;20075;-71
2023/09/20 07:44:11;;;;;;;10.77;8.38;;;;;;;17.63;77.02;95124.50;5094300;28;20024;-72
2023/09/20 07:46:38;;;;;;;9.90;8.20;;;;;;;17.99;73.18;95126.84;5092998;28;20035;-72
2023/09/20 07:49:09;;;;;;;10.15;7.78;;;;;;;17.96;74.25;95127.16;5076222;28;20024;-72
2023/09/20 07:51:36;;;;;;;;;;;;;;;18.14;74.46;95146.22;5093409;28;20051;-71
2023/09/20 07:54:03;;;;;;;10.32;7.78;;;;;;;18.00;73.50;95150.34;5075899;28;20340;-71
2023/09/20 07:56:28;;;;;;;8.63;7.40;;;;;;;18.15;74.69;95141.78;5092787;28;20116;-72
2023/09/20 07:58:54;;;;;;;9.48;8.27;;;;;;;18.13;73.81;95141.94;5092719;28;20063;-71
2023/09/20 08:01:21;;;;;;;12.38;8.60;;;;;;;18.29;72.22;95139.28;5075752;28;20032;-71
2023/09/20 08:03:53;;;;;;;10.52;7.88;;;;;;;18.51;72.18;95136.97;5092492;28;20054;-72
2023/09/20 08:06:19;;;;;;;10.32;7.82;;;;;;;18.70;71.97;95146.28;5092863;28;20027;-72
2023/09/20 08:08:45;;;;;;;9.27;7.78;;;;;;;18.84;71.19;95127.19;5092474;28;20032;-71
2023/09/20 08:11:10;;;;;;;10.60;9.15;;;;;;;18.89;71.01;95137.22;5092423;28;20390;-72
2023/09/20 08:13:36;;;;;;;11.93;9.73;;;;;;;19.27;68.89;95129.47;5092600;28;20044;-72
2023/09/20 08:16:09;;;;;;;10.80;8.75;;;;;;;19.17;68.93;95133.16;5093971;28;20389;-72
2023/09/20 08:21:18;;;;;;;12.60;10.20;;;;;;;18.51;72.01;95121.19;5092960;28;20455;-71
2023/09/20 09:02:13;;;;;;;9.73;8.57;;;;;;;20.34;66.02;95097.88;5077394;28;20067;-72
2023/09/20 09:04:39;;;;;;;11.02;8.60;;;;;;;20.53;65.27;95113.19;5075587;28;20035;-72
2023/09/20 09:07:05;;;;;;;11.20;9.00;;;;;;;20.47;65.14;95098.88;5074501;28;20405;-72
2023/09/20 09:09:30;;;;;;;15.88;8.95;;;;;;;20.76;65.33;95097.31;5074582;28;20395;-72
2023/09/20 09:11:59;;;;;;;9.68;7.90;;;;;;;20.82;65.93;95101.84;5092529;28;20036;-72
2023/09/20 09:14:25;;;;;;;8.88;7.57;;;;;;;21.10;63.81;95099.34;5091220;28;20543;-71
2023/09/20 09:16:52;;;;;;;12.25;8.52;;;;;;;20.78;63.81;95078.63;5092419;28;20024;-71
2023/09/20 09:19:17;;;;;;;9.50;7.57;;;;;;;20.68;64.05;95078.91;5074555;28;20020;-72
2023/09/20 09:21:43;;;;;;;9.27;6.60;;;;;;;20.72;63.58;95093.38;5090855;28;20032;-72
2023/09/20 09:24:08;;;;;;;9.50;7.45;;;;;;;20.97;64.06;95093.91;5074265;28;20035;-72
2023/09/20 09:26:34;;;;;;;8.68;6.72;;;;;;;20.81;62.90;95094.94;5092237;28;20032;-72
2023/09/20 09:29:00;;;;;;;9.98;7.53;;;;;;;20.77;63.36;95080.44;5092119;28;20032;-72
2023/09/20 09:31:28;;;;;;;9.32;6.88;;;;;;;20.69;63.81;95085.81;5073408;28;20486;-72
2023/09/20 09:33:54;;;;;;;8.70;7.47;;;;;;;20.71;63.79;95092.56;5091098;28;20042;-72
2023/09/20 09:36:19;;;;;;;9.35;8.15;;;;;;;20.94;63.42;95092.44;5092029;28;20016;-72
2023/09/20 09:38:45;;;;;;;10.63;7.60;;;;;;;20.81;63.15;95092.28;5090633;28;20028;-72
2023/09/20 09:41:11;;;;;;;9.23;7.32;;;;;;;21.06;61.25;95086.69;5057282;28;20028;-72
2023/09/20 09:43:36;;;;;;;8.75;7.03;;;;;;;21.11;62.34;95086.97;5074034;28;20028;-72
2023/09/20 09:46:09;;;;;;;9.00;7.30;;;;;;;20.90;62.63;95075.34;5073886;28;20067;-72
2023/09/20 09:48:38;;;;;;;8.30;7.03;;;;;;;21.13;62.39;95079.66;5074248;28;20036;-72
2023/09/20 09:51:06;;;;;;;9.50;7.47;;;;;;;21.20;61.93;95080.56;5090564;28;20028;-71
2023/09/20 09:53:34;;;;;;;10.00;7.38;;;;;;;21.51;60.38;95080.31;5073721;28;20379;-72
2023/09/20 09:56:01;;;;;;;9.32;6.90;;;;;;;21.42;61.36;95063.78;5090547;28;20028;-72
2023/09/20 09:58:27;;;;;;;10.52;6.65;;;;;;;21.82;60.06;95077.34;5073708;28;20048;-72
2023/09/20 10:00:53;;;;;;;12.45;7.45;;;;;;;21.62;61.13;95079.00;5091617;28;20467;-72
2023/09/20 10:03:24;;;;;;;8.90;6.68;;;;;;;21.93;59.03;95077.88;5090526;28;20115;-72
2023/09/20 10:05:52;;;;;;;9.20;7.18;;;;;;;22.13;58.67;95065.59;5090292;28;20409;-72
2023/09/20 10:08:17;;;;;;;10.25;8.25;;;;;;;21.89;59.84;95071.31;5073827;28;20552;-72
2023/09/20 10:10:44;;;;;;;10.77;8.48;;;;;;;21.78;59.93;95059.41;5090243;28;20081;-72
2023/09/20 10:13:13;;;;;;;13.10;8.50;;;;;;;21.69;59.12;95053.44;5090333;28;20028;-72
2023/09/20 10:15:38;;;;;;;8.80;7.50;;;;;;;21.81;58.50;95053.75;5090166;28;20028;-72
2023/09/20 10:18:04;;;;;;;10.25;6.78;;;;;;;21.74;58.60;95069.56;5073380;28;20537;-72
2023/09/20 10:21:10;;;;;;;7.85;5.97;;;;;;;21.92;58.81;95060.34;5090125;28;20024;-72
2023/09/20 10:23:37;;;;;;;9.27;6.57;;;;;;;21.81;59.38;95059.03;5069707;28;20113;-72
2023/09/20 10:26:02;;;;;;;10.07;6.78;;;;;;;21.66;59.46;95047.72;5073408;28;20023;-72
2023/09/20 10:28:35;;;;;;;11.18;7.10;;;;;;;21.86;57.95;95046.88;5073069;28;20035;-72
2023/09/20 10:31:01;;;;;;;12.98;7.78;;;;;;;21.99;59.00;95053.28;5091226;28;20024;-72
2023/09/20 10:33:54;;;;;;;8.40;6.03;;;;;;;22.21;57.38;95049.63;5090113;28;20040;-72
2023/09/20 10:36:27;;;;;;;10.52;6.70;;;;;;;22.22;57.36;95045.13;5089963;28;20107;-72
2023/09/20 10:39:17;;;;;;;10.10;7.78;;;;;;;22.14;56.74;95037.31;5091010;28;20036;-72
2023/09/20 10:41:43;;;;;;;8.85;7.75;;;;;;;22.51;55.72;95029.03;5089865;28;20453;-72
2023/09/20 10:44:35;;;;;;;8.20;7.13;;;;;;;22.40;56.08;95026.09;5089620;28;20028;-72
2023/09/20 10:47:12;;;;;;;8.00;6.88;;;;;;;22.43;56.29;95021.25;5074616;28;20036;-72
2023/09/20 10:49:52;;;;;;;10.13;6.93;;;;;;;22.61;56.32;95023.38;5073097;28;20046;-72
2023/09/20 10:52:32;;;;;;;8.60;5.90;;;;;;;22.63;56.42;95016.06;5072982;28;20417;-72
2023/09/20 10:55:20;;;;;;;10.30;6.63;;;;;;;22.53;56.81;95012.94;5090953;28;20016;-72
2023/09/20 10:57:46;;;;;;;8.65;7.72;;;;;;;22.55;55.22;95004.81;5089375;28;20091;-72
2023/09/20 11:00:14;;;;;;;10.48;7.28;;;;;;;22.81;54.97;94996.16;5089744;28;20456;-73
2023/09/20 11:02:40;;;;;;;7.57;6.00;;;;;;;23.07;53.92;94996.31;5089636;28;20448;-72
2023/09/20 11:05:06;;;;;;;8.52;6.20;;;;;;;22.94;53.75;94964.44;5089596;28;20036;-73
2023/09/20 11:07:32;;;;;;;8.77;5.93;;;;;;;23.11;54.93;94986.09;5089485;28;20118;-72
2023/09/20 11:09:57;;;;;;;7.35;4.70;;;;;;;22.97;49.50;94979.97;5089588;28;20016;-72
2023/09/20 11:12:23;;;;;;;7.63;4.82;;;;;;;23.09;51.93;94981.00;5089510;28;20080;-72
2023/09/20 11:14:50;;;;;;;6.30;4.93;;;;;;;23.10;50.95;94989.78;5089507;28;20024;-72
2023/09/20 11:17:16;;;;;;;9.55;5.78;;;;;;;23.02;50.30;94985.47;5090949;28;20043;-72
2023/09/20 11:19:42;;;;;;;4.95;3.78;;;;;;;23.18;48.76;94982.47;5072738;28;20028;-72
2023/09/20 11:22:07;;;;;;;6.20;4.25;;;;;;;23.38;48.29;94989.63;5072600;28;20043;-72
2023/09/20 11:24:36;;;;;;;7.07;4.28;;;;;;;23.31;49.49;94975.53;5072582;28;20474;-72
2023/09/20 11:27:02;;;;;;;7.47;4.50;;;;;;;23.23;49.43;94973.88;5089284;28;20061;-72
2023/09/20 11:29:27;;;;;;;6.75;4.18;;;;;;;23.50;49.01;94969.44;5072629;28;20017;-72
2023/09/20 11:31:57;;;;;;;6.07;4.60;;;;;;;23.60;49.36;94974.34;5072404;28;20527;-72
2023/09/20 11:34:22;;;;;;;6.28;4.07;;;;;;;23.72;48.11;94954.19;5089318;28;20016;-72
2023/09/20 11:36:48;;;;;;;5.88;4.40;;;;;;;23.66;48.49;94967.44;5089158;28;20032;-72
2023/09/20 11:39:14;;;;;;;5.55;4.13;;;;;;;23.79;47.39;94946.22;5072528;28;20028;-72
2023/09/20 11:41:42;;;;;;;6.97;4.15;;;;;;;23.94;48.14;94969.88;5090400;28;20477;-72
2023/09/20 11:44:08;;;;;;;5.43;4.35;;;;;;;23.81;47.62;94965.38;5090640;28;20409;-72
2023/09/20 11:46:34;;;;;;;6.82;3.97;;;;;;;23.84;47.38;94960.47;5090411;28;20020;-72
2023/09/20 11:49:04;;;;;;;7.15;4.03;;;;;;;23.86;46.46;94936.41;5089308;28;20028;-72
2023/09/20 11:51:33;;;;;;;7.95;4.18;;;;;;;23.94;46.48;94943.34;5089196;28;20477;-72
2023/09/20 11:54:00;;;;;;;6.65;3.80;;;;;;;24.05;45.14;94934.75;5072913;28;20069;-73
2023/09/20 11:56:26;;;;;;;5.53;3.65;;;;;;;24.11;45.26;94943.72;5075554;28;20500;-72
2023/09/20 11:58:54;;;;;;;5.22;3.75;;;;;;;24.04;46.47;94939.25;5059148;28;20525;-72
2023/09/20 12:01:24;;;;;;;5.82;3.85;;;;;;;24.19;46.27;94936.34;5093829;28;20040;-72
2023/09/20 12:03:51;;;;;;;5.72;4.00;;;;;;;24.24;46.30;94931.25;5075620;28;20059;-72
2023/09/20 12:06:17;;;;;;;7.53;3.20;;;;;;;24.43;45.48;94932.25;5093844;28;20017;-72
2023/09/20 12:08:43;;;;;;;6.63;3.80;;;;;;;24.42;44.46;94925.25;5092440;28;20054;-72
2023/09/20 12:11:09;;;;;;;8.48;4.00;;;;;;;24.39;45.21;94928.31;5092626;28;20469;-72
2023/09/20 12:13:34;;;;;;;6.78;3.80;;;;;;;24.37;43.84;94927.72;5094064;28;20035;-72